This is the latest recevied weather packets stored in our database for station/object M0HPP-13. If no packets are shown the sender has not sent any weather packets the latest 10 day(s).
| Time | Temp. | Humidity | Pressure | Rain* | Wind** | Luminosity | Snow |
|---|---|---|---|---|---|---|---|
| 1777511419 | 6.67° C | 87% | 1027.1 hPa | 0 mm | - | 0 W/m² | - |
| 1777510819 | 6.67° C | 87% | 1027.1 hPa | 0 mm | - | 0 W/m² | - |
| 1777510219 | 7.22° C | 87% | 1027.1 hPa | 0 mm | - | 0 W/m² | - |
| 1777509655 | 6.67° C | 88% | 1027.2 hPa | 0 mm | - | 0 W/m² | - |
| 1777509019 | 6.67° C | 88% | 1027 hPa | 0 mm | - | 0 W/m² | - |
| 1777508419 | 6.67° C | 88% | 1027.1 hPa | 0 mm | - | 0 W/m² | - |
| 1777507819 | 7.22° C | 87% | 1027.2 hPa | 0 mm | - | 0 W/m² | - |
| 1777507219 | 7.78° C | 87% | 1027.1 hPa | 0 mm | - | 0 W/m² | - |
| 1777506619 | 8.33° C | 83% | 1027.1 hPa | 0 mm | - | 0 W/m² | - |
| 1777506019 | 8.33° C | 83% | 1027 hPa | 0 mm | - | 0 W/m² | - |
| 1777505419 | 7.78° C | 85% | 1027 hPa | 0 mm | - | 0 W/m² | - |
| 1777504819 | 7.22° C | 84% | 1027 hPa | 0 mm | - | 0 W/m² | - |
| 1777504219 | 7.22° C | 86% | 1027.1 hPa | 0 mm | - | 0 W/m² | - |
| 1777503619 | 7.78° C | 82% | 1027 hPa | 0 mm | - | 0 W/m² | - |
| 1777503019 | 8.33° C | 81% | 1027.1 hPa | 0 mm | - | 0 W/m² | - |
| 1777502419 | 8.33° C | 81% | 1027.2 hPa | 0 mm | - | 0 W/m² | - |
| 1777501819 | 8.33° C | 80% | 1027.2 hPa | 0 mm | - | 0 W/m² | - |
| 1777501219 | 9.44° C | 77% | 1027.3 hPa | 0 mm | - | 0 W/m² | - |
| 1777500619 | 9.44° C | 77% | 1027.3 hPa | 0 mm | - | 0 W/m² | - |
| 1777500019 | 9.44° C | 76% | 1027.2 hPa | 0 mm | - | 0 W/m² | - |
| 1777499419 | 9.44° C | 77% | 1027.2 hPa | 0 mm | - | 0 W/m² | - |
| 1777498819 | 10° C | 76% | 1027.2 hPa | 0 mm | - | 0 W/m² | - |
| 1777498219 | 10° C | 76% | 1027.4 hPa | 0 mm | - | 0 W/m² | - |
| 1777497619 | 10° C | 76% | 1027.3 hPa | 0 mm | - | 0 W/m² | - |
| 1777497019 | 10.56° C | 74% | 1027.4 hPa | 0 mm | - | 0 W/m² | - |
* Rain latest hour (hover to see other rain measurements)
** Current wind speed in m/s (hover to see current wind gust speed)